Time;durP1;ratioP1;P1;durP2;ratioP2;P2;SDS_P1;SDS_P2;PMS_P1;PMS_P2;Temp;Humidity;BMP_temperature;BMP_pressure;BME280_temperature;BME280_humidity;BME280_pressure;Samples;Min_cycle;Max_cycle;Signal;HPM_P1;HPM_P2
2021/12/09 00:02:02;;;;;;;11.20;5.10;;;;;;;1.77;100.00;99908.06;4970685;28;20036;-78
2021/12/09 00:04:30;;;;;;;13.75;3.67;;;;;;;1.66;100.00;99900.59;4957918;28;20130;-78
2021/12/09 00:06:58;;;;;;;8.77;4.35;;;;;;;1.64;100.00;99900.69;4956053;28;20027;-78
2021/12/09 00:09:24;;;;;;;12.85;4.18;;;;;;;1.61;100.00;99903.56;4957521;28;20069;-78
2021/12/09 00:11:50;;;;;;;18.77;5.03;;;;;;;1.60;100.00;99899.09;4963215;28;20054;-78
2021/12/09 00:14:26;;;;;;;13.13;4.43;;;;;;;1.60;100.00;99899.09;4960990;28;20031;-78
2021/12/09 00:16:54;;;;;;;14.27;4.32;;;;;;;1.70;100.00;99906.69;4959585;28;20059;-78
2021/12/09 00:19:20;;;;;;;10.30;4.15;;;;;;;1.74;100.00;99900.13;4957347;28;20044;-78
2021/12/09 00:21:45;;;;;;;10.75;3.55;;;;;;;1.69;100.00;99904.94;4942995;28;20449;-78
2021/12/09 00:24:11;;;;;;;24.20;7.28;;;;;;;1.72;100.00;99902.06;4961352;28;20035;-78
2021/12/09 00:26:38;;;;;;;12.20;4.75;;;;;;;1.73;100.00;99901.09;4941916;28;20035;-78
2021/12/09 00:29:05;;;;;;;11.13;4.38;;;;;;;1.73;100.00;99898.41;4961392;28;20031;-79
2021/12/09 00:31:31;;;;;;;19.58;4.90;;;;;;;1.76;100.00;99903.63;4958260;28;21871;-78
2021/12/09 00:33:58;;;;;;;18.80;5.28;;;;;;;1.75;100.00;99889.25;4960698;28;20118;-78
2021/12/09 00:36:27;;;;;;;9.32;4.60;;;;;;;1.77;100.00;99900.84;4971801;28;20486;-78
2021/12/09 00:38:57;;;;;;;14.00;4.32;;;;;;;1.75;100.00;99900.03;4960379;28;20094;-78
2021/12/09 00:41:23;;;;;;;21.80;5.25;;;;;;;1.80;100.00;99892.56;4959022;28;20102;-78
2021/12/09 00:43:49;;;;;;;18.70;4.75;;;;;;;1.89;100.00;99907.34;4967464;28;20042;-79
2021/12/09 00:46:15;;;;;;;30.40;6.97;;;;;;;1.83;100.00;99907.69;4958730;28;20027;-79
2021/12/09 00:48:41;;;;;;;17.33;5.70;;;;;;;1.84;100.00;99902.22;4959255;28;20398;-79
2021/12/09 00:51:07;;;;;;;13.05;4.90;;;;;;;1.80;100.00;99902.47;4973703;28;20629;-78
2021/12/09 00:53:34;;;;;;;23.95;5.82;;;;;;;1.88;100.00;99904.75;4961904;28;20043;-78
2021/12/09 00:56:03;;;;;;;14.63;4.93;;;;;;;1.96;100.00;99907.84;4967889;28;20423;-77
2021/12/09 00:58:28;;;;;;;23.40;7.28;;;;;;;1.95;100.00;99906.09;4973617;28;20542;-77
2021/12/09 01:00:54;;;;;;;17.17;5.85;;;;;;;1.85;100.00;99897.69;4956731;28;20095;-77
2021/12/09 01:03:20;;;;;;;19.13;4.97;;;;;;;1.87;100.00;99890.38;4960096;28;20077;-78
2021/12/09 01:05:47;;;;;;;13.82;4.45;;;;;;;1.91;100.00;99896.47;4944826;29;20482;-78
2021/12/09 01:08:13;;;;;;;19.33;4.85;;;;;;;1.98;100.00;99896.03;4960162;28;20031;-78
2021/12/09 01:10:39;;;;;;;12.80;4.65;;;;;;;1.90;100.00;99892.03;4959211;28;20054;-77
2021/12/09 01:13:05;;;;;;;10.15;4.45;;;;;;;1.93;100.00;99900.81;4957212;28;20031;-77
2021/12/09 01:15:31;;;;;;;18.35;5.25;;;;;;;1.98;100.00;99901.44;4976313;28;20336;-77
2021/12/09 01:17:56;;;;;;;18.15;5.22;;;;;;;1.99;100.00;99902.28;4958300;28;20043;-77
2021/12/09 01:20:27;;;;;;;16.92;5.93;;;;;;;1.96;100.00;99897.91;4959000;28;20039;-78
2021/12/09 01:22:55;;;;;;;14.77;4.53;;;;;;;1.98;100.00;99904.13;4949199;28;20100;-77
2021/12/09 01:25:23;;;;;;;19.92;4.22;;;;;;;2.00;100.00;99915.69;4958322;28;20043;-77
2021/12/09 01:27:51;;;;;;;13.95;4.32;;;;;;;1.99;100.00;99921.19;4961040;28;20038;-77
2021/12/09 01:30:19;;;;;;;19.10;4.57;;;;;;;2.00;100.00;99922.91;4954260;28;20164;-77
2021/12/09 01:32:50;;;;;;;14.98;4.43;;;;;;;1.95;100.00;99917.78;4961582;28;20039;-77
2021/12/09 01:35:19;;;;;;;15.85;4.70;;;;;;;1.92;100.00;99911.69;4974548;28;20034;-77
2021/12/09 01:37:46;;;;;;;14.95;4.38;;;;;;;1.95;100.00;99917.78;4955924;28;20198;-77
2021/12/09 01:40:12;;;;;;;19.50;5.03;;;;;;;1.95;100.00;99931.28;4938141;29;20071;-78
2021/12/09 01:42:37;;;;;;;15.50;5.10;;;;;;;1.92;100.00;99926.06;4955917;28;20117;-78
2021/12/09 01:45:05;;;;;;;17.10;4.50;;;;;;;1.93;100.00;99924.22;4973161;28;20126;-78
2021/12/09 01:47:30;;;;;;;14.57;4.40;;;;;;;1.94;100.00;99921.44;4957021;28;20623;-78
2021/12/09 01:49:56;;;;;;;13.18;3.80;;;;;;;1.92;100.00;99927.88;4955860;28;20106;-78
2021/12/09 01:52:22;;;;;;;13.00;3.40;;;;;;;1.95;100.00;99934.00;4958838;28;20114;-77
2021/12/09 01:54:47;;;;;;;16.48;4.43;;;;;;;1.90;100.00;99940.59;4955737;28;20050;-77
2021/12/09 01:57:13;;;;;;;13.65;4.05;;;;;;;1.87;100.00;99938.06;4960097;28;20829;-77
2021/12/09 01:59:38;;;;;;;10.68;3.60;;;;;;;1.84;100.00;99922.94;4957147;28;20638;-76
2021/12/09 02:02:04;;;;;;;12.85;4.45;;;;;;;1.86;100.00;99929.13;4956288;28;20038;-77
2021/12/09 02:04:30;;;;;;;15.60;4.40;;;;;;;1.86;100.00;99926.41;4952858;28;20035;-77
2021/12/09 02:06:55;;;;;;;17.33;4.25;;;;;;;1.80;100.00;99924.06;4967940;28;20047;-77
2021/12/09 02:09:22;;;;;;;10.65;3.58;;;;;;;1.80;100.00;99929.47;4958267;28;20077;-77
2021/12/09 02:11:47;;;;;;;12.80;4.20;;;;;;;1.79;100.00;99916.94;4952953;28;20463;-77
2021/12/09 02:14:13;;;;;;;12.45;4.10;;;;;;;1.83;100.00;99924.75;4953478;28;20042;-77
2021/12/09 02:16:39;;;;;;;10.07;3.80;;;;;;;1.77;100.00;99921.53;4954081;28;20086;-78
2021/12/09 02:19:05;;;;;;;11.73;4.30;;;;;;;1.71;100.00;99914.69;4970200;28;20549;-77
2021/12/09 02:21:34;;;;;;;25.80;5.13;;;;;;;1.75;100.00;99912.69;4956517;28;20031;-77
2021/12/09 02:24:02;;;;;;;11.95;4.15;;;;;;;1.76;100.00;99922.53;4955009;28;20143;-77
2021/12/09 02:26:31;;;;;;;18.60;3.83;;;;;;;1.69;100.00;99915.72;4956157;28;20035;-77
2021/12/09 02:28:58;;;;;;;13.70;3.70;;;;;;;1.71;100.00;99920.09;4959642;28;20035;-78
2021/12/09 02:31:25;;;;;;;11.40;4.13;;;;;;;1.64;100.00;99916.88;4958155;28;20381;-78
2021/12/09 02:33:51;;;;;;;22.00;4.53;;;;;;;1.62;100.00;99913.41;4955205;28;20051;-78
2021/12/09 02:36:17;;;;;;;9.13;3.95;;;;;;;1.64;100.00;99922.28;4973384;28;20035;-78
2021/12/09 02:38:44;;;;;;;6.93;3.60;;;;;;;1.56;100.00;99916.44;4960990;28;20107;-77
2021/12/09 02:41:18;;;;;;;15.50;4.10;;;;;;;1.60;100.00;99919.81;4968683;28;20031;-77
2021/12/09 02:43:48;;;;;;;13.20;5.35;;;;;;;1.61;100.00;99925.13;4971277;28;20126;-77
2021/12/09 02:46:13;;;;;;;13.75;3.75;;;;;;;1.56;100.00;99921.84;4955329;28;20054;-77
2021/12/09 02:48:39;;;;;;;14.18;4.18;;;;;;;1.50;100.00;99918.63;4958211;28;20499;-77
2021/12/09 02:51:05;;;;;;;9.77;3.83;;;;;;;1.49;100.00;99919.56;4939357;28;20129;-78
2021/12/09 02:53:32;;;;;;;13.30;4.00;;;;;;;1.46;100.00;99917.94;4951175;29;20033;-77
2021/12/09 02:55:58;;;;;;;12.90;4.03;;;;;;;1.47;100.00;99919.66;4969325;28;20132;-78
2021/12/09 02:58:23;;;;;;;11.63;3.45;;;;;;;1.41;100.00;99920.88;4955442;28;20065;-77
2021/12/09 03:00:54;;;;;;;17.30;4.47;;;;;;;1.45;100.00;99924.28;4953861;28;20038;-77
2021/12/09 03:03:19;;;;;;;16.98;4.22;;;;;;;1.35;100.00;99923.06;4974225;28;20063;-77
2021/12/09 03:05:46;;;;;;;16.88;4.05;;;;;;;1.37;100.00;99927.38;4958866;29;20030;-77
2021/12/09 03:08:23;;;;;;;14.10;3.80;;;;;;;1.33;100.00;99923.13;4959748;28;20031;-78
2021/12/09 03:10:48;;;;;;;9.93;3.60;;;;;;;1.35;100.00;99932.00;4960271;28;20422;-77
2021/12/09 03:13:15;;;;;;;11.57;4.05;;;;;;;1.35;100.00;99939.22;4961070;28;20039;-77
2021/12/09 03:15:40;;;;;;;12.88;3.85;;;;;;;1.24;100.00;99932.59;4973983;28;20151;-77
2021/12/09 03:18:06;;;;;;;11.65;3.63;;;;;;;1.25;100.00;99937.03;4944620;29;20053;-78
2021/12/09 03:20:31;;;;;;;8.60;3.28;;;;;;;1.23;100.00;99936.25;4970013;28;20023;-77
2021/12/09 03:22:57;;;;;;;14.88;4.03;;;;;;;1.26;100.00;99940.59;4980755;28;20423;-77
2021/12/09 03:25:22;;;;;;;9.52;3.65;;;;;;;1.24;100.00;99943.38;4960548;28;20050;-78
2021/12/09 03:27:48;;;;;;;7.25;3.65;;;;;;;1.24;100.00;99945.22;4941811;29;20480;-77
2021/12/09 03:30:17;;;;;;;12.65;3.78;;;;;;;1.23;100.00;99952.44;4956521;28;20047;-77
2021/12/09 03:32:43;;;;;;;19.67;4.32;;;;;;;1.19;100.00;99944.59;4958735;28;20031;-78
2021/12/09 03:35:11;;;;;;;12.98;3.75;;;;;;;1.18;100.00;99941.03;4957592;28;20035;-78
2021/12/09 03:37:38;;;;;;;19.38;4.00;;;;;;;1.17;100.00;99946.53;4945371;29;20064;-78
2021/12/09 03:40:06;;;;;;;11.40;3.80;;;;;;;1.06;100.00;99949.78;4977940;28;20039;-78
2021/12/09 03:42:33;;;;;;;11.10;3.90;;;;;;;1.12;100.00;99956.69;4955509;28;20047;-78
2021/12/09 03:45:00;;;;;;;16.45;4.20;;;;;;;1.18;100.00;99957.22;4946640;29;20050;-78
2021/12/09 03:47:29;;;;;;;17.52;3.58;;;;;;;1.16;100.00;99955.53;4962754;29;20043;-78
2021/12/09 03:49:55;;;;;;;11.35;3.83;;;;;;;1.15;100.00;99962.78;4962828;29;20067;-78
2021/12/09 03:52:21;;;;;;;6.57;3.22;;;;;;;1.17;100.00;99960.84;4971581;28;20047;-78
2021/12/09 03:54:48;;;;;;;25.25;3.70;;;;;;;1.08;100.00;99955.97;4977352;28;20043;-78
2021/12/09 03:57:15;;;;;;;7.50;3.17;;;;;;;1.05;100.00;99959.72;4945866;29;20092;-78
2021/12/09 03:59:42;;;;;;;13.35;3.67;;;;;;;1.08;100.00;99967.63;4979224;28;20027;-78
2021/12/09 04:02:08;;;;;;;15.07;3.58;;;;;;;1.05;100.00;99967.78;4963961;28;20535;-78
2021/12/09 04:04:34;;;;;;;16.58;3.70;;;;;;;0.97;100.00;99964.66;4950576;29;20510;-78
2021/12/09 04:07:00;;;;;;;19.23;3.53;;;;;;;1.03;100.00;99966.13;4972026;28;20043;-78
2021/12/09 04:09:25;;;;;;;16.35;3.40;;;;;;;1.04;100.00;99965.19;4962315;29;20054;-79
2021/12/09 04:11:52;;;;;;;17.90;3.78;;;;;;;1.07;100.00;99976.66;4963681;28;20042;-78
2021/12/09 04:14:18;;;;;;;9.30;3.53;;;;;;;1.03;100.00;99967.00;4960804;28;20028;-78
2021/12/09 04:16:44;;;;;;;10.48;3.08;;;;;;;0.99;100.00;99973.50;4960272;28;20035;-78
2021/12/09 04:19:11;;;;;;;8.77;3.50;;;;;;;0.98;100.00;99970.91;4960211;28;20043;-77
2021/12/09 04:21:37;;;;;;;17.45;4.35;;;;;;;1.02;100.00;99972.50;4961125;28;20043;-78
2021/12/09 04:24:08;;;;;;;9.45;3.42;;;;;;;0.91;100.00;99965.81;4949138;29;20043;-78
2021/12/09 04:26:38;;;;;;;23.08;4.90;;;;;;;0.97;100.00;99971.84;4958942;28;20046;-78
2021/12/09 04:29:05;;;;;;;10.80;3.25;;;;;;;0.96;100.00;99973.66;4961518;28;20043;-78
2021/12/09 04:31:31;;;;;;;11.65;3.33;;;;;;;1.02;100.00;99973.34;4964804;28;20111;-78
2021/12/09 04:33:57;;;;;;;13.13;3.22;;;;;;;0.99;100.00;99968.13;4943856;28;20066;-78
2021/12/09 04:36:25;;;;;;;25.67;3.75;;;;;;;1.00;100.00;99971.69;4961813;28;20131;-78
2021/12/09 04:38:52;;;;;;;17.48;3.45;;;;;;;0.97;100.00;99966.44;4975298;28;20062;-78
2021/12/09 04:41:19;;;;;;;8.20;3.47;;;;;;;0.93;100.00;99962.19;4961771;28;20091;-77
2021/12/09 04:43:45;;;;;;;15.93;3.53;;;;;;;0.97;100.00;99969.13;4960289;28;20505;-77
2021/12/09 04:46:12;;;;;;;15.73;3.80;;;;;;;0.98;100.00;99971.75;4974577;28;20086;-77
2021/12/09 04:48:38;;;;;;;20.48;3.72;;;;;;;0.88;100.00;99967.81;4974774;28;20467;-77
2021/12/09 04:51:04;;;;;;;16.98;4.25;;;;;;;0.87;100.00;99977.75;4957123;28;20044;-77
2021/12/09 04:53:30;;;;;;;17.35;4.28;;;;;;;0.88;100.00;99976.75;4973074;28;20099;-77
2021/12/09 04:55:56;;;;;;;8.35;3.50;;;;;;;0.86;100.00;99981.38;4955422;28;20043;-77
2021/12/09 04:58:23;;;;;;;16.33;3.47;;;;;;;0.91;100.00;99987.38;4939289;29;20093;-77
2021/12/09 05:00:50;;;;;;;16.48;3.83;;;;;;;0.85;100.00;99985.03;4952255;28;20491;-77
2021/12/09 05:03:16;;;;;;;10.55;3.03;;;;;;;0.85;100.00;99981.44;4955649;28;20070;-77
2021/12/09 05:05:47;;;;;;;13.63;3.50;;;;;;;0.83;100.00;99981.53;4957872;28;20035;-78
2021/12/09 05:08:15;;;;;;;11.05;3.60;;;;;;;0.78;100.00;99989.00;4959586;28;20411;-77
2021/12/09 05:13:16;;;;;;;17.00;3.50;;;;;;;0.69;100.00;99994.88;4957355;28;20110;-78
2021/12/09 05:15:42;;;;;;;7.72;3.42;;;;;;;0.66;100.00;99992.34;4961722;28;20047;-77
2021/12/09 05:18:08;;;;;;;14.35;4.03;;;;;;;0.76;100.00;99996.28;4959979;28;20050;-77
2021/12/09 05:20:33;;;;;;;16.00;4.18;;;;;;;0.64;100.00;99991.53;4973396;28;20044;-77
2021/12/09 05:22:59;;;;;;;14.18;3.60;;;;;;;0.64;100.00;99988.84;4969934;28;20070;-78
2021/12/09 05:25:24;;;;;;;22.67;4.32;;;;;;;0.62;100.00;99988.91;4958054;28;20138;-77
2021/12/09 05:27:50;;;;;;;16.27;3.80;;;;;;;0.59;100.00;99986.41;4972818;28;20035;-78
2021/12/09 05:30:23;;;;;;;21.13;4.18;;;;;;;0.62;100.00;99988.91;4974073;28;20035;-77
2021/12/09 05:32:49;;;;;;;19.33;3.72;;;;;;;0.66;100.00;99995.03;4957867;29;20039;-78
2021/12/09 05:35:15;;;;;;;15.88;4.05;;;;;;;0.70;100.00;99996.59;4974384;28;20090;-78
2021/12/09 05:37:41;;;;;;;12.20;3.58;;;;;;;0.70;100.00;99997.47;4968892;28;20079;-78
2021/12/09 05:40:07;;;;;;;19.67;4.88;;;;;;;0.70;100.00;100004.69;4961066;29;20067;-78
2021/12/09 05:42:32;;;;;;;11.43;4.07;;;;;;;0.79;100.00;100016.78;4973089;28;20093;-78
2021/12/09 05:44:59;;;;;;;14.10;5.15;;;;;;;0.77;100.00;100010.63;4971755;28;20090;-78
2021/12/09 05:47:25;;;;;;;14.90;4.20;;;;;;;0.73;100.00;100013.47;4944929;28;20031;-78
2021/12/09 05:49:53;;;;;;;8.80;3.20;;;;;;;0.75;100.00;100018.78;4975656;28;20130;-78
2021/12/09 05:52:19;;;;;;;11.52;3.75;;;;;;;0.72;100.00;100018.94;4956855;28;20031;-78
2021/12/09 05:54:44;;;;;;;12.23;3.20;;;;;;;0.83;100.00;100019.25;4960483;28;20066;-78
2021/12/09 05:57:11;;;;;;;13.02;3.40;;;;;;;0.86;100.00;100023.63;4957192;28;20035;-78
2021/12/09 05:59:40;;;;;;;12.55;3.88;;;;;;;0.81;100.00;100020.31;4960349;28;20102;-78
2021/12/09 06:02:07;;;;;;;17.05;3.60;;;;;;;0.87;100.00;100019.97;4954803;28;20055;-78
2021/12/09 06:04:32;;;;;;;17.83;3.40;;;;;;;0.84;100.00;100029.09;4963248;28;20033;-78
2021/12/09 06:06:58;;;;;;;18.73;3.33;;;;;;;0.86;100.00;100023.63;4962417;28;20042;-79
2021/12/09 06:09:24;;;;;;;10.10;3.53;;;;;;;0.90;100.00;100031.47;4962717;28;20154;-78
2021/12/09 06:11:50;;;;;;;9.48;2.78;;;;;;;0.88;100.00;100027.97;4958985;28;20456;-78
2021/12/09 06:14:16;;;;;;;14.00;3.30;;;;;;;0.86;100.00;100026.31;4959025;28;20027;-78
2021/12/09 06:16:45;;;;;;;11.70;3.30;;;;;;;0.90;100.00;100020.69;4960912;28;20035;-78
2021/12/09 06:19:10;;;;;;;12.15;4.68;;;;;;;0.87;100.00;100025.34;4975934;28;20583;-79
2021/12/09 06:21:35;;;;;;;13.00;3.45;;;;;;;0.83;100.00;100024.66;4954631;28;20050;-78
2021/12/09 06:24:02;;;;;;;18.77;3.40;;;;;;;0.97;100.00;100034.72;4965386;28;20044;-77
2021/12/09 06:26:29;;;;;;;15.07;4.55;;;;;;;0.94;100.00;100031.31;4955092;28;20493;-78
2021/12/09 06:28:55;;;;;;;10.20;3.75;;;;;;;0.89;100.00;100032.41;4957041;28;20624;-78
2021/12/09 06:31:21;;;;;;;20.08;3.33;;;;;;;0.88;100.00;100027.97;4960513;28;20038;-78
2021/12/09 06:33:47;;;;;;;16.58;2.97;;;;;;;0.92;100.00;100034.09;4940560;28;20039;-78
2021/12/09 06:36:13;;;;;;;9.70;3.35;;;;;;;0.90;100.00;100030.59;4960723;28;20047;-78
2021/12/09 06:38:39;;;;;;;15.98;3.95;;;;;;;0.88;100.00;100044.13;4971682;28;20035;-79
2021/12/09 06:41:05;;;;;;;21.98;3.40;;;;;;;0.91;100.00;100032.34;4957586;28;20035;-79
2021/12/09 06:43:30;;;;;;;15.02;4.47;;;;;;;0.87;100.00;100045.09;4960436;28;20063;-79
2021/12/09 06:45:57;;;;;;;17.17;4.38;;;;;;;0.91;100.00;100046.66;4972975;28;20526;-78
2021/12/09 06:48:23;;;;;;;10.45;3.75;;;;;;;0.91;100.00;100043.97;4962941;28;20081;-80
2021/12/09 06:50:49;;;;;;;15.95;3.75;;;;;;;0.85;100.00;100041.63;4961403;28;20031;-79
2021/12/09 06:53:16;;;;;;;20.23;3.97;;;;;;;0.84;100.00;100044.41;4962115;28;20058;-79
2021/12/09 06:55:42;;;;;;;12.25;3.90;;;;;;;0.86;100.00;100046.03;4961987;28;20087;-79
2021/12/09 06:58:08;;;;;;;8.93;3.45;;;;;;;0.87;100.00;100049.59;4964974;28;20031;-79
2021/12/09 07:00:41;;;;;;;19.20;3.25;;;;;;;0.76;100.00;100034.00;4979326;28;20035;-79
2021/12/09 07:03:07;;;;;;;13.13;3.67;;;;;;;0.76;100.00;100047.47;4975691;28;20035;-79
2021/12/09 07:05:33;;;;;;;13.63;4.15;;;;;;;0.73;100.00;100050.34;4958676;29;20530;-79
2021/12/09 07:07:58;;;;;;;16.67;4.90;;;;;;;0.74;100.00;100046.69;4963161;28;20039;-79
2021/12/09 07:10:24;;;;;;;22.73;4.07;;;;;;;0.78;100.00;100056.34;4959264;28;20085;-79
2021/12/09 07:12:50;;;;;;;16.80;4.80;;;;;;;0.77;100.00;100067.19;4956651;28;20035;-78
2021/12/09 07:15:16;;;;;;;27.90;4.97;;;;;;;0.75;100.00;100056.50;4954947;28;20921;-77
2021/12/09 07:17:41;;;;;;;14.93;4.30;;;;;;;0.79;100.00;100054.53;4949988;28;20036;-77
2021/12/09 07:20:10;;;;;;;14.52;4.20;;;;;;;0.76;100.00;100060.09;4955146;29;20085;-78
2021/12/09 07:22:37;;;;;;;14.65;4.70;;;;;;;0.71;100.00;100047.72;4971693;28;20063;-77
2021/12/09 07:25:04;;;;;;;11.73;4.10;;;;;;;0.72;100.00;100059.34;4973811;28;20089;-77
2021/12/09 07:27:30;;;;;;;17.38;4.60;;;;;;;0.82;100.00;100059.75;4957949;29;20027;-77
2021/12/09 07:29:55;;;;;;;22.50;4.78;;;;;;;0.77;100.00;100061.81;4952100;28;20501;-78
2021/12/09 07:32:21;;;;;;;21.45;4.72;;;;;;;0.77;100.00;100072.59;4956660;28;20038;-78
2021/12/09 07:34:47;;;;;;;24.48;5.35;;;;;;;0.74;100.00;100060.16;4957076;28;20182;-79
2021/12/09 07:37:12;;;;;;;19.60;4.93;;;;;;;0.71;100.00;100069.25;4971069;28;20054;-78
2021/12/09 07:39:38;;;;;;;9.07;4.22;;;;;;;0.69;100.00;100060.41;4954393;28;20063;-78
2021/12/09 07:42:04;;;;;;;15.95;4.95;;;;;;;0.72;100.00;100078.22;4957458;28;20121;-78
2021/12/09 07:44:30;;;;;;;21.40;5.53;;;;;;;0.75;100.00;100077.19;4954957;28;20027;-78
2021/12/09 07:46:57;;;;;;;20.48;5.10;;;;;;;0.71;100.00;100079.19;4963428;28;20046;-79
2021/12/09 07:49:24;;;;;;;25.05;5.60;;;;;;;0.72;100.00;100072.81;4976638;28;20079;-79
2021/12/09 07:51:50;;;;;;;13.75;4.78;;;;;;;0.79;100.00;100073.38;4971784;28;20028;-79
2021/12/09 07:54:16;;;;;;;18.08;5.32;;;;;;;0.77;100.00;100078.88;4974365;28;20035;-78
2021/12/09 07:56:43;;;;;;;15.65;5.18;;;;;;;0.80;100.00;100062.53;4955159;29;20443;-78
2021/12/09 07:59:08;;;;;;;15.85;5.20;;;;;;;0.87;100.00;100066.66;4961824;29;20054;-78
2021/12/09 08:01:34;;;;;;;17.98;6.75;;;;;;;0.88;100.00;100065.69;4958601;29;20031;-78
2021/12/09 08:04:01;;;;;;;15.88;5.47;;;;;;;0.88;100.00;100060.31;4940945;29;20051;-78
2021/12/09 08:06:27;;;;;;;21.95;5.57;;;;;;;1.04;100.00;100056.81;4959053;28;20031;-79
2021/12/09 08:08:53;;;;;;;19.48;6.32;;;;;;;0.91;100.00;100053.91;4960101;28;20042;-78
2021/12/09 08:11:18;;;;;;;18.85;6.60;;;;;;;0.91;100.00;100060.16;4958920;29;20480;-78
2021/12/09 08:13:44;;;;;;;19.13;6.97;;;;;;;0.95;100.00;100058.16;4945457;29;20055;-79
2021/12/09 08:16:09;;;;;;;25.23;6.03;;;;;;;0.92;100.00;100055.66;4947150;28;20071;-79
2021/12/09 08:18:53;;;;;;;17.17;6.07;;;;;;;0.95;100.00;100071.63;4963531;29;20027;-79
2021/12/09 08:21:20;;;;;;;19.08;6.80;;;;;;;1.00;100.00;100064.22;4973664;28;20043;-79
2021/12/09 08:23:45;;;;;;;18.35;6.15;;;;;;;1.13;100.00;100074.31;4970402;28;20051;-78
2021/12/09 08:26:10;;;;;;;15.60;6.25;;;;;;;1.02;100.00;100074.91;4960044;29;20031;-79
2021/12/09 08:28:36;;;;;;;18.30;6.10;;;;;;;0.98;100.00;100081.41;4960057;28;20102;-79
2021/12/09 08:31:01;;;;;;;20.15;6.30;;;;;;;0.97;100.00;100085.03;4962380;28;20043;-78
2021/12/09 08:33:27;;;;;;;13.98;5.50;;;;;;;0.96;100.00;100084.16;4985856;28;20383;-79
2021/12/09 08:35:52;;;;;;;18.88;6.15;;;;;;;1.12;100.00;100089.63;4947146;29;20047;-79
2021/12/09 08:38:18;;;;;;;20.02;6.32;;;;;;;1.21;100.00;100089.13;4963499;28;20474;-79
2021/12/09 08:40:45;;;;;;;26.75;6.47;;;;;;;1.35;100.00;100091.13;4959220;28;20063;-79
2021/12/09 08:43:11;;;;;;;22.45;6.57;;;;;;;1.39;100.00;100081.88;4961913;29;20171;-78
2021/12/09 08:45:37;;;;;;;26.55;7.00;;;;;;;1.41;100.00;100080.00;4943165;29;20078;-79
2021/12/09 08:48:04;;;;;;;15.18;6.32;;;;;;;1.47;100.00;100081.47;4975043;28;20411;-80
2021/12/09 08:50:33;;;;;;;17.13;6.15;;;;;;;1.55;100.00;100086.47;4944391;29;20090;-79
2021/12/09 08:53:00;;;;;;;16.98;5.80;;;;;;;1.58;100.00;100080.91;4959470;29;20110;-79
2021/12/09 08:55:25;;;;;;;18.70;6.65;;;;;;;1.60;100.00;100085.25;4959286;28;20372;-79
2021/12/09 08:57:52;;;;;;;17.88;6.18;;;;;;;1.71;100.00;100092.78;4961850;28;20078;-80
2021/12/09 09:00:18;;;;;;;18.88;6.15;;;;;;;1.74;100.00;100099.81;4978140;28;20038;-79
2021/12/09 09:02:46;;;;;;;18.42;5.63;;;;;;;1.77;100.00;100091.56;4961284;29;20050;-79
2021/12/09 09:05:13;;;;;;;16.38;6.13;;;;;;;1.77;100.00;100084.34;4978459;28;20038;-80
2021/12/09 09:07:46;;;;;;;24.13;6.40;;;;;;;1.82;100.00;100084.97;4975758;28;20024;-80
2021/12/09 09:10:14;;;;;;;18.02;6.18;;;;;;;1.89;100.00;100088.19;4968134;28;20122;-80
2021/12/09 09:12:39;;;;;;;19.88;6.10;;;;;;;1.94;100.00;100094.19;4961357;28;20043;-80
2021/12/09 09:15:08;;;;;;;12.43;6.20;;;;;;;2.02;100.00;100101.88;4963529;28;20090;-79
2021/12/09 09:17:34;;;;;;;17.02;6.15;;;;;;;2.10;100.00;100107.72;4958300;28;20099;-79
2021/12/09 09:20:00;;;;;;;17.77;5.97;;;;;;;2.09;100.00;100097.88;4956236;29;20027;-81
2021/12/09 09:22:25;;;;;;;16.80;6.07;;;;;;;2.14;100.00;100092.22;4961715;28;20039;-80
2021/12/09 09:24:51;;;;;;;17.95;6.53;;;;;;;2.18;100.00;100097.34;4962081;28;20054;-80
2021/12/09 09:27:17;;;;;;;17.27;6.32;;;;;;;2.24;100.00;100103.38;4962271;28;20023;-80
2021/12/09 09:29:43;;;;;;;22.38;6.10;;;;;;;2.29;100.00;100110.22;4963614;28;20035;-81
2021/12/09 09:32:12;;;;;;;19.60;5.95;;;;;;;2.24;100.00;100106.06;4961393;29;20526;-80
2021/12/09 09:34:38;;;;;;;19.88;6.90;;;;;;;2.34;100.00;100113.53;4962172;28;20051;-80
2021/12/09 09:37:04;;;;;;;17.63;6.28;;;;;;;2.30;100.00;100098.47;4963477;28;20039;-82
2021/12/09 09:39:31;;;;;;;15.93;5.80;;;;;;;2.45;100.00;100115.63;4962624;28;20051;-80
2021/12/09 09:42:18;;;;;;;20.17;5.88;;;;;;;2.50;100.00;100112.69;4978171;28;20067;-80
2021/12/09 09:44:54;;;;;;;14.98;5.38;;;;;;;2.54;100.00;100120.53;4962671;28;20074;-79
2021/12/09 09:47:25;;;;;;;17.42;5.93;;;;;;;2.59;100.00;100117.53;4962461;29;20082;-82
2021/12/09 09:49:51;;;;;;;13.32;5.15;;;;;;;2.50;100.00;100093.75;4977393;28;20667;-79
2021/12/09 09:52:17;;;;;;;13.85;5.72;;;;;;;2.64;100.00;100112.75;4961837;28;20115;-80
2021/12/09 09:54:43;;;;;;;16.55;5.45;;;;;;;2.69;100.00;100113.34;4944994;29;20535;-78
2021/12/09 09:57:09;;;;;;;15.82;5.88;;;;;;;2.69;100.00;100107.06;4976860;28;20039;-79
2021/12/09 09:59:36;;;;;;;20.92;5.10;;;;;;;2.73;100.00;100106.78;4960909;29;20035;-78
2021/12/09 10:02:03;;;;;;;20.00;5.78;;;;;;;2.77;100.00;100112.88;4973399;28;20031;-79
2021/12/09 10:04:46;;;;;;;11.93;5.07;;;;;;;2.83;100.00;100104.41;4959894;28;20043;-80
2021/12/09 10:07:14;;;;;;;14.57;4.63;;;;;;;2.85;100.00;100096.22;4959845;29;20054;-79
2021/12/09 10:09:40;;;;;;;18.50;5.55;;;;;;;2.81;100.00;100089.25;4960092;28;20038;-80
2021/12/09 10:12:06;;;;;;;11.15;4.70;;;;;;;2.91;100.00;100102.13;4960341;29;20027;-79
2021/12/09 10:14:34;;;;;;;10.73;4.43;;;;;;;2.94;100.00;100095.69;4961426;29;20118;-79
2021/12/09 10:17:08;;;;;;;8.20;4.88;;;;;;;2.94;100.00;100103.78;4976238;28;20038;-78
2021/12/09 10:20:01;;;;;;;16.45;5.45;;;;;;;2.90;100.00;100086.00;4950541;29;20063;-79
2021/12/09 10:22:35;;;;;;;13.73;5.10;;;;;;;3.01;100.00;100098.88;4954994;28;20048;-82
2021/12/09 10:25:03;;;;;;;17.02;5.80;;;;;;;2.99;100.00;100093.56;4956035;28;20115;-78
2021/12/09 10:27:33;;;;;;;19.27;5.60;;;;;;;3.02;100.00;100087.13;4945251;29;20098;-79
2021/12/09 10:30:15;;;;;;;15.60;5.55;;;;;;;3.07;100.00;100098.53;4959136;28;20035;-82
2021/12/09 10:32:42;;;;;;;12.05;5.30;;;;;;;3.07;100.00;100090.41;4964810;28;20094;-79
2021/12/09 10:35:15;;;;;;;13.57;5.00;;;;;;;3.11;100.00;100087.41;4958809;29;20058;-80
2021/12/09 10:37:43;;;;;;;9.18;4.47;;;;;;;3.12;100.00;100093.69;4959494;29;20070;-80
2021/12/09 10:40:11;;;;;;;11.73;5.20;;;;;;;3.09;100.00;100096.59;4944797;29;20035;-80
2021/12/09 10:42:51;;;;;;;13.43;5.20;;;;;;;3.13;100.00;100090.00;4956722;29;20097;-80
2021/12/09 10:45:20;;;;;;;11.07;5.03;;;;;;;3.13;100.00;100093.63;4966563;28;20042;-79
2021/12/09 10:50:58;;;;;;;11.27;3.92;;;;;;;3.25;100.00;100086.56;4959765;29;20043;-79
2021/12/09 10:55:55;;;;;;;10.10;4.32;;;;;;;3.18;100.00;100089.75;4971501;28;20518;-80
2021/12/09 10:58:42;;;;;;;18.85;6.47;;;;;;;3.18;100.00;100078.91;4955832;29;20123;-80
2021/12/09 11:01:09;;;;;;;10.23;4.75;;;;;;;3.28;100.00;100080.09;4957855;29;20042;-79
2021/12/09 11:03:42;;;;;;;18.95;5.75;;;;;;;3.32;100.00;100078.94;4961056;29;20463;-80
2021/12/09 11:06:19;;;;;;;11.75;5.68;;;;;;;3.24;100.00;100074.00;4957870;29;20042;-81
2021/12/09 11:08:50;;;;;;;14.00;4.90;;;;;;;3.25;100.00;100081.16;4959974;28;20034;-80
2021/12/09 11:11:27;;;;;;;13.50;4.65;;;;;;;3.27;100.00;100081.06;4943007;29;20031;-79
2021/12/09 11:14:05;;;;;;;11.30;5.00;;;;;;;3.26;100.00;100080.22;4958608;29;20039;-80
2021/12/09 11:16:38;;;;;;;11.77;4.70;;;;;;;3.27;100.00;100078.38;4943341;29;20059;-80
2021/12/09 11:19:11;;;;;;;9.23;5.65;;;;;;;3.30;100.00;100075.47;4959656;29;20050;-80
2021/12/09 11:21:41;;;;;;;8.15;4.78;;;;;;;3.26;100.00;100073.91;4954659;29;20067;-81
2021/12/09 11:24:14;;;;;;;16.77;5.47;;;;;;;3.26;100.00;100073.91;4934851;29;20058;-80
2021/12/09 11:29:30;;;;;;;13.18;4.97;;;;;;;3.25;100.00;100069.47;4958902;29;20502;-80
2021/12/09 11:32:13;;;;;;;12.13;5.03;;;;;;;3.32;100.00;100073.53;4957134;28;20046;-80
2021/12/09 11:34:46;;;;;;;8.27;4.40;;;;;;;3.30;100.00;100062.81;4957515;28;20047;-81